• Join FlightAware (Why Join?)
  • Login
  • US Flag 
06:46PM EDT


 

Airport Tracker/Info


-or-


 

Live Flight TrackerFlight Track Log ✈ SWA2966 ✈ 27-Jul-2013 ✈ KSEA - KRNO

Flight Track Log - Related Links

Times and Time Zones

All times are in EDT time to prevent confusion due to time zone crossing. See the SWA2966 flight status page for this flight to view local times or setup timezone preferences in your user account.

Time Position Orientation Groundspeed Altitude Reporting Facility
EDT Latitude Longitude Course Direction KTS MPH feet Rate Location/Type
04:55PM 47.4306 -122.3097 181° South 162 186 1,400  Level Seattle Center
04:56PM 47.3667 -122.3106 181° South 205 236 4,300 2,400 Climbing Seattle Center
04:57PM 47.2983 -122.3086 179° South 251 289 6,600 2,460 Climbing Seattle Center
04:58PM 47.2242 -122.2750 163° South 280 322 9,400 2,700 Climbing Seattle Center
04:59PM 47.1419 -122.2328 161° South 317 365 12,100 2,760 Climbing Seattle Center
05:00PM 47.0467 -122.1878 162° South 364 419 15,100 2,940 Climbing Seattle Center
05:01PM 46.9500 -122.1431 162° South 377 434 18,100 2,940 Climbing Seattle Center
05:02PM 46.8464 -122.0992 164° South 390 449 21,100 2,760 Climbing Seattle Center
05:03PM 46.7394 -122.0475 162° South 406 467 23,700 2,520 Climbing Seattle Center
05:04PM 46.6283 -121.9961 162° South 422 486 26,200 2,400 Climbing Seattle Center
05:05PM 46.4906 -121.9403 164° South 432 497 28,700 2,400 Climbing Seattle Center
05:06PM 46.3739 -121.8953 165° South 439 505 31,100 2,340 Climbing Seattle Center
05:07PM 46.2597 -121.8519 165° South 430 495 33,500 1,860 Climbing Seattle Center
05:08PM 46.1511 -121.8103 165° South 421 484 35,000 720 Climbing Seattle Center
05:09PM 46.0392 -121.7675 165° South 419 482 35,000  Level Seattle Center
05:10PM 45.9286 -121.7253 165° South 415 478 35,000  Level Seattle Center
05:11PM 45.8186 -121.6836 165° South 412 474 35,000  Level Seattle Center
05:12PM 45.7075 -121.6417 165° South 412 474 35,000  Level Seattle Center
05:13PM 45.5972 -121.6017 166° South 412 474 35,000  Level Seattle Center
05:14PM 45.4681 -121.5531 165° South 404 465 35,000  Level Seattle Center
05:15PM 45.3606 -121.5133 165° South 402 463 35,000  Level Seattle Center
05:16PM 45.2533 -121.4739 165° South 400 460 35,000  Level Seattle Center
05:17PM 45.1453 -121.4336 165° South 403 464 35,000  Level Seattle Center
05:18PM 45.0378 -121.3950 166° South 402 463 35,000  Level Seattle Center
05:19PM 44.9297 -121.3553 165° South 403 464 35,000  Level Seattle Center
05:20PM 44.8206 -121.3153 165° South 406 467 35,000  Level Seattle Center
05:21PM 44.7108 -121.2767 166° South 407 468 35,000  Level Seattle Center
05:22PM 44.5919 -121.2342 166° South 410 472 35,000  Level Seattle Center
05:23PM 44.4811 -121.1936 165° South 411 473 35,000  Level Seattle Center
05:24PM 44.3586 -121.1494 166° South 412 474 35,000  Level Seattle Center
05:25PM 44.2456 -121.1086 165° South 418 481 35,000  Level Seattle Center
05:26PM 44.1350 -121.0694 166° South 416 479 35,000  Level Seattle Center
05:27PM 44.0244 -121.0303 166° South 413 475 35,000  Level Seattle Center
05:28PM 43.9125 -120.9897 165° South 416 479 35,000  Level Seattle Center
05:29PM 43.8025 -120.9525 166° South 410 472 35,000  Level Seattle Center
05:30PM 43.6908 -120.9139 166° South 414 476 35,000  Level Seattle Center
05:31PM 43.5789 -120.8753 166° South 415 478 35,000  Level Seattle Center
05:32PM 43.4553 -120.8333 166° South 414 476 35,000  Level Seattle Center
05:33PM 43.3428 -120.7947 166° South 417 480 35,000  Level Seattle Center
05:34PM 43.2275 -120.7558 166° South 425 489 35,000  Level Seattle Center
05:35PM 43.1136 -120.7175 166° South 422 486 35,000  Level Seattle Center
05:36PM 43.0000 -120.6789 166° South 421 484 35,000  Level Seattle Center
05:37PM 42.8853 -120.6400 166° South 423 487 35,000  Level Seattle Center
05:38PM 42.7719 -120.6028 166° South 421 484 35,000  Level Seattle Center
05:40PM 42.6594 -120.5647 166° South 418 481 35,000  Level Seattle Center
05:41PM 42.5456 -120.5267 166° South 420 483 35,000  Level Seattle Center
05:42PM 42.4092 -120.4833 167° South 419 482 35,000  Level Seattle Center
05:43PM 42.2950 -120.4492 168° South 421 484 35,000  Level Seattle Center
05:44PM 42.1828 -120.4164 168° South 414 476 35,000  Level Seattle Center
05:45PM 42.0692 -120.3819 167° South 416 479 35,000  Level Seattle Center
05:46PM 41.9575 -120.3483 167° South 412 474 35,000  Level Seattle Center
05:47PM 41.8447 -120.3144 167° South 413 475 35,000  Level Seattle Center
05:48PM 41.7328 -120.2808 167° South 412 474 35,000  Level Seattle Center
05:49PM 41.6186 -120.2503 169° South 418 481 35,000  Level Seattle Center
05:50PM 41.5053 -120.2172 168° South 414 476 35,000  Level Seattle Center
05:51PM 41.3942 -120.1833 167° South 411 473 35,000  Level Seattle Center
05:52PM 41.2839 -120.1519 168° South 409 471 35,000 -360 Level Seattle Center
05:52PM 41.2172 -120.1239 162° South 414 476 34,500 -1,260 Descending Oakland Center
05:53PM 41.1039 -120.0958 169° South 416 479 33,000 -780 Descending Oakland Center
05:54PM 40.9869 -120.0667 169° South 424 488 33,000 -600 Level Oakland Center
05:55PM 40.8739 -120.0333 167° South 420 483 31,800 -1,920 Descending Oakland Center
05:56PM 40.7428 -119.9892 166° South 410 472 29,100 -2,820 Descending Oakland Center
05:57PM 40.6281 -119.9572 168° South 417 480 26,100 -2,940 Descending Oakland Center
05:58PM 40.5147 -119.9303 170° South 403 464 23,100 -2,400 Descending Oakland Center
05:59PM 40.4028 -119.8986 168° South 409 471 21,300 -1,740 Descending Oakland Center
06:00PM 40.2978 -119.8686 168° South 396 456 19,600 -1,860 Descending Oakland Center
06:01PM 40.1961 -119.8414 168° South 380 437 17,600 -1,800 Descending Oakland Center
06:03PM 40.0972 -119.8133 168° South 370 426 16,000 -840 Descending Oakland Center
06:04PM 40.0025 -119.7858 167° South 356 410 16,000  Level Oakland Center
06:05PM 39.9056 -119.7583 168° South 355 409 16,000 -780 Level Oakland Center
06:06PM 39.7878 -119.7278 169° South 360 414 14,500 -1,860 Descending Oakland Center
06:07PM 39.6894 -119.6994 167° South 362 417 12,300 -2,220 Descending Oakland Center
06:08PM 39.5950 -119.6731 168° South 354 407 10,100 -1,140 Descending Oakland Center
06:09PM 39.5056 -119.6528 170° South 342 394 10,000 -60 Descending Oakland Center
06:10PM 39.4314 -119.6472 177° South 299 344 10,000 -300 Level Oakland Center
06:11PM 39.3808 -119.6947 216° Southwest 251 289 9,400 -960 Descending Oakland Center
06:12PM 39.3542 -119.7536 240° Southwest 217 250 8,100 -1,620 Descending Oakland Center
06:13PM 39.4167 -119.7667 351° North 154 177 5,900 -1,500 Descending Northern Cal TRACON
06:14PM 39.4667 -119.7667 360° North 159 183 4,900 -1,020 Descending Northern Cal TRACON